createdAt,value
2022-11-30T00:00:01.530Z,112.32
2022-11-30T00:02:29.946Z,117.20
2022-11-30T00:04:56.354Z,111.90
2022-11-30T00:07:22.799Z,111.15
2022-11-30T00:09:49.227Z,109.88
2022-11-30T00:12:15.826Z,113.43
2022-11-30T00:14:42.190Z,109.18
2022-11-30T00:17:08.621Z,116.30
2022-11-30T00:19:35.023Z,118.15
2022-11-30T00:22:01.395Z,111.78
2022-11-30T00:24:27.777Z,112.15
2022-11-30T00:26:54.166Z,116.05
2022-11-30T00:29:20.529Z,112.45
2022-11-30T00:31:46.999Z,111.57
2022-11-30T00:34:13.417Z,108.82
2022-11-30T00:36:39.805Z,113.32
2022-11-30T00:39:06.357Z,112.85
2022-11-30T00:41:32.754Z,108.35
2022-11-30T00:43:59.144Z,117.65
2022-11-30T00:46:25.679Z,114.93
2022-11-30T00:48:52.149Z,114.60
2022-11-30T00:51:19.249Z,116.43
2022-11-30T00:53:47.591Z,126.25
2022-11-30T00:56:14.455Z,112.07
2022-11-30T00:58:41.240Z,110.63
2022-11-30T01:01:08.466Z,123.18
2022-11-30T01:03:34.904Z,111.13
2022-11-30T01:06:03.544Z,118.72
2022-11-30T01:08:30.228Z,116.72
2022-11-30T01:10:57.714Z,127.03
2022-11-30T01:13:24.441Z,116.53
2022-11-30T01:15:50.872Z,118.32
2022-11-30T01:18:17.319Z,118.28
2022-11-30T01:20:43.802Z,114.25
2022-11-30T01:23:11.083Z,115.07
2022-11-30T01:25:37.545Z,110.43
2022-11-30T01:28:04.067Z,117.93
2022-11-30T01:30:30.571Z,115.25
2022-11-30T01:33:02.047Z,116.18
2022-11-30T01:35:28.415Z,115.07
2022-11-30T01:37:54.799Z,117.70
2022-11-30T01:40:21.246Z,121.18
2022-11-30T01:42:47.908Z,119.03
2022-11-30T01:45:14.780Z,119.40
2022-11-30T01:47:46.790Z,126.35
2022-11-30T01:50:22.946Z,125.75
2022-11-30T01:52:53.818Z,128.20
2022-11-30T01:55:25.199Z,118.07
2022-11-30T01:57:57.088Z,115.93
2022-11-30T02:00:24.092Z,121.47
2022-11-30T02:03:06.993Z,122.10
2022-11-30T02:05:35.930Z,122.57
2022-11-30T02:08:02.484Z,121.13
2022-11-30T02:10:32.500Z,126.07
2022-11-30T02:13:17.564Z,125.80
2022-11-30T02:16:01.798Z,122.13
2022-11-30T02:18:37.720Z,117.97
2022-11-30T02:21:46.024Z,120.03
2022-11-30T02:24:27.837Z,115.75
2022-11-30T02:27:10.093Z,117.40
2022-11-30T02:30:03.042Z,128.52
2022-11-30T02:32:36.001Z,115.55
2022-11-30T02:35:04.778Z,120.68
2022-11-30T02:37:33.246Z,116.32
2022-11-30T02:39:59.637Z,124.38
2022-11-30T02:42:26.085Z,121.78
2022-11-30T02:44:53.624Z,125.38
2022-11-30T02:47:45.344Z,129.57
2022-11-30T02:50:17.309Z,120.20
2022-11-30T02:52:44.652Z,127.55
2022-11-30T02:55:15.127Z,123.57
2022-11-30T02:57:41.603Z,122.70
2022-11-30T03:00:10.761Z,129.90
2022-11-30T03:02:38.741Z,124.75
2022-11-30T03:05:05.847Z,119.55
2022-11-30T03:07:32.628Z,118.57
2022-11-30T03:09:59.937Z,120.47
2022-11-30T03:12:26.573Z,119.72
2022-11-30T03:14:53.200Z,120.20
2022-11-30T03:17:19.588Z,126.43
2022-11-30T03:19:45.963Z,125.03
2022-11-30T03:22:12.378Z,129.35
2022-11-30T03:24:38.757Z,124.75
2022-11-30T03:27:05.184Z,116.13
2022-11-30T03:29:31.597Z,117.35
2022-11-30T03:31:58.044Z,120.18
2022-11-30T03:34:26.475Z,119.68
2022-11-30T03:36:53.356Z,120.75
2022-11-30T03:39:19.776Z,118.05
2022-11-30T03:41:46.168Z,123.15
2022-11-30T03:44:12.547Z,127.75
2022-11-30T03:46:39.067Z,125.30
2022-11-30T03:49:05.802Z,113.47
2022-11-30T03:51:32.207Z,120.28
2022-11-30T03:53:58.853Z,118.80
2022-11-30T03:56:25.490Z,122.65
2022-11-30T03:58:52.007Z,126.18
2022-11-30T04:01:24.297Z,118.22
2022-11-30T04:03:52.207Z,114.45
2022-11-30T04:06:20.410Z,119.78
2022-11-30T04:08:47.453Z,116.72
2022-11-30T04:11:14.645Z,119.28
2022-11-30T04:13:41.543Z,120.07
2022-11-30T04:16:09.141Z,120.00
2022-11-30T04:18:37.123Z,120.78
2022-11-30T04:21:04.331Z,115.30
2022-11-30T04:23:33.257Z,121.60
2022-11-30T04:26:00.018Z,114.38
2022-11-30T04:28:26.414Z,121.60
2022-11-30T04:30:54.133Z,113.70
2022-11-30T04:33:20.559Z,116.13
2022-11-30T04:35:50.037Z,128.30
2022-11-30T04:38:16.952Z,114.32
2022-11-30T04:40:43.745Z,118.88
2022-11-30T04:43:11.217Z,113.75
2022-11-30T04:45:37.815Z,119.97
2022-11-30T04:48:05.483Z,119.00
2022-11-30T04:50:31.950Z,109.30
2022-11-30T04:52:58.491Z,122.72
2022-11-30T04:55:25.436Z,119.55
2022-11-30T04:57:52.040Z,116.13
2022-11-30T05:00:19.576Z,117.00
2022-11-30T05:02:52.177Z,113.93
2022-11-30T05:05:19.627Z,118.03
2022-11-30T05:07:55.848Z,117.20
2022-11-30T05:10:22.612Z,120.68
2022-11-30T05:12:50.132Z,121.07
2022-11-30T05:15:16.969Z,113.88
2022-11-30T05:17:43.398Z,120.72
2022-11-30T05:20:10.127Z,111.85
2022-11-30T05:22:36.535Z,116.85
2022-11-30T05:25:03.419Z,119.50
2022-11-30T05:27:29.881Z,117.28
2022-11-30T05:29:56.309Z,121.32
2022-11-30T05:32:22.743Z,117.40
2022-11-30T05:34:51.770Z,119.32
2022-11-30T05:37:19.371Z,122.68
2022-11-30T05:39:45.772Z,109.47
2022-11-30T05:42:12.142Z,118.10
2022-11-30T05:44:38.604Z,114.07
2022-11-30T05:47:05.261Z,112.97
2022-11-30T05:49:31.697Z,109.47
2022-11-30T05:51:58.055Z,115.88
2022-11-30T05:54:24.477Z,110.35
2022-11-30T05:56:54.665Z,118.38
2022-11-30T05:59:22.237Z,123.07
2022-11-30T06:01:48.851Z,112.18
2022-11-30T06:04:15.348Z,116.70
2022-11-30T06:06:41.709Z,115.25
2022-11-30T06:09:08.262Z,109.82
2022-11-30T06:11:34.637Z,117.30
2022-11-30T06:14:01.030Z,106.65
2022-11-30T06:16:27.487Z,117.63
2022-11-30T06:18:53.963Z,115.20
2022-11-30T06:21:24.449Z,113.93
2022-11-30T06:23:51.884Z,115.80
2022-11-30T06:26:18.324Z,115.18
2022-11-30T06:28:48.095Z,121.68
2022-11-30T06:31:14.791Z,117.95
2022-11-30T06:33:41.369Z,110.43
2022-11-30T06:36:08.293Z,118.53
2022-11-30T06:38:34.727Z,114.20
2022-11-30T06:41:09.825Z,110.28
2022-11-30T06:43:37.847Z,111.03
2022-11-30T06:46:05.967Z,111.93
2022-11-30T06:48:33.237Z,114.03
2022-11-30T06:51:00.488Z,115.20
2022-11-30T06:53:27.407Z,116.20
2022-11-30T06:55:53.932Z,120.25
2022-11-30T06:58:20.382Z,112.20
2022-11-30T07:01:33.050Z,113.63
2022-11-30T07:03:59.490Z,123.57
2022-11-30T07:06:25.980Z,111.20
2022-11-30T07:08:52.346Z,121.30
2022-11-30T07:11:18.774Z,114.57
2022-11-30T07:13:45.684Z,112.45
2022-11-30T07:16:13.684Z,113.18
2022-11-30T07:18:40.213Z,115.05
2022-11-30T07:21:07.136Z,116.78
2022-11-30T07:23:56.360Z,110.00
2022-11-30T07:26:24.411Z,112.20
2022-11-30T07:28:54.614Z,110.35
2022-11-30T07:31:23.826Z,110.72
2022-11-30T07:33:50.704Z,112.57
2022-11-30T07:36:18.734Z,116.30
2022-11-30T07:38:45.789Z,112.60
2022-11-30T07:41:12.550Z,110.70
2022-11-30T07:43:39.533Z,104.65
2022-11-30T07:46:06.504Z,118.85
2022-11-30T07:48:33.920Z,110.82
2022-11-30T07:51:10.101Z,108.15
2022-11-30T07:53:36.688Z,109.55
2022-11-30T07:56:08.621Z,113.10
2022-11-30T07:58:35.219Z,112.97
2022-11-30T08:01:10.594Z,118.25
2022-11-30T08:03:37.593Z,111.88
2022-11-30T08:06:06.828Z,107.57
2022-11-30T08:08:35.813Z,110.60
2022-11-30T08:11:03.744Z,109.85
2022-11-30T08:13:30.604Z,113.38
2022-11-30T08:16:02.244Z,112.95
2022-11-30T08:21:00.120Z,108.00
2022-11-30T08:23:38.000Z,116.18
2022-11-30T08:26:11.218Z,116.15
2022-11-30T08:28:37.744Z,114.65
2022-11-30T08:31:07.515Z,111.85
2022-11-30T08:33:35.371Z,115.75
2022-11-30T08:36:12.329Z,109.40
2022-11-30T08:38:39.958Z,112.22
2022-11-30T08:41:07.984Z,116.43
2022-11-30T08:43:34.671Z,122.20
2022-11-30T08:46:27.379Z,118.47
2022-11-30T08:49:12.576Z,105.40
2022-11-30T08:52:08.801Z,114.90
2022-11-30T08:54:27.386Z,109.10
2022-11-30T08:56:53.812Z,107.05
2022-11-30T08:59:20.259Z,106.28
2022-11-30T09:01:46.720Z,108.00
2022-11-30T09:04:13.112Z,108.93
2022-11-30T09:06:39.492Z,101.47
2022-11-30T09:09:06.403Z,109.25
2022-11-30T09:11:33.730Z,105.18
2022-11-30T09:14:02.107Z,115.68
2022-11-30T09:16:28.721Z,103.63
2022-11-30T09:18:55.158Z,108.57
2022-11-30T09:21:24.128Z,98.18
2022-11-30T09:23:51.563Z,102.25
2022-11-30T09:26:20.612Z,102.15
2022-11-30T09:28:47.705Z,101.10
2022-11-30T09:31:16.466Z,111.45
2022-11-30T09:33:43.379Z,102.03
2022-11-30T09:36:11.937Z,104.65
2022-11-30T09:38:39.009Z,106.78
2022-11-30T09:41:33.460Z,107.65
2022-11-30T09:44:18.680Z,104.35
2022-11-30T09:46:57.504Z,94.30
2022-11-30T09:49:37.167Z,107.97
2022-11-30T09:52:09.063Z,96.88
2022-11-30T09:54:41.139Z,98.28
2022-11-30T09:57:29.070Z,99.38
2022-11-30T09:59:56.997Z,97.35
2022-11-30T10:02:34.749Z,96.85
2022-11-30T10:05:01.736Z,110.97
2022-11-30T10:07:58.954Z,105.75
2022-11-30T10:10:56.197Z,99.93
2022-11-30T10:13:44.721Z,106.25
2022-11-30T10:16:35.382Z,102.45
2022-11-30T10:19:20.174Z,103.38
2022-11-30T10:22:04.538Z,99.03
2022-11-30T10:24:36.964Z,97.72
2022-11-30T10:27:18.730Z,95.20
2022-11-30T10:32:29.167Z,104.20
2022-11-30T10:35:21.395Z,103.03
2022-11-30T10:37:51.449Z,106.75
2022-11-30T10:40:34.328Z,108.57
2022-11-30T10:43:32.886Z,102.88
2022-11-30T10:45:59.686Z,104.15
2022-11-30T10:48:34.152Z,101.63
2022-11-30T10:51:02.789Z,103.10
2022-11-30T10:53:29.323Z,103.15
2022-11-30T10:56:01.564Z,100.63
2022-11-30T10:58:33.000Z,100.10
2022-11-30T11:01:05.969Z,97.40
2022-11-30T11:03:33.306Z,101.68
2022-11-30T11:06:11.126Z,102.72
2022-11-30T11:08:37.530Z,101.07
2022-11-30T11:11:05.009Z,99.32
2022-11-30T11:13:41.025Z,95.65
2022-11-30T11:16:13.298Z,98.65
2022-11-30T11:18:56.208Z,104.18
2022-11-30T11:21:23.949Z,95.20
2022-11-30T11:23:53.752Z,99.47
2022-11-30T11:26:22.775Z,94.22
2022-11-30T11:28:51.721Z,105.18
2022-11-30T11:31:44.303Z,102.55
2022-11-30T11:34:49.405Z,96.63
2022-11-30T11:37:21.024Z,103.50
2022-11-30T11:40:02.416Z,91.13
2022-11-30T11:42:36.975Z,93.65
2022-11-30T11:45:04.611Z,96.13
2022-11-30T11:47:40.612Z,94.53
2022-11-30T11:50:57.746Z,95.55
2022-11-30T11:53:47.411Z,99.03
2022-11-30T11:56:24.258Z,101.88
2022-11-30T11:58:57.642Z,96.15
2022-11-30T12:01:42.722Z,103.43
2022-11-30T12:04:17.174Z,94.32
2022-11-30T12:06:45.273Z,94.65
2022-11-30T12:09:16.045Z,94.80
2022-11-30T12:11:45.523Z,96.38
2022-11-30T12:14:18.122Z,94.78
2022-11-30T12:16:56.839Z,93.50
2022-11-30T12:19:41.372Z,96.30
2022-11-30T12:22:19.818Z,94.68
2022-11-30T12:25:19.876Z,95.75
2022-11-30T12:28:20.419Z,102.15
2022-11-30T12:31:13.129Z,96.68
2022-11-30T12:34:00.518Z,92.85
2022-11-30T12:36:45.330Z,96.22
2022-11-30T12:39:30.486Z,90.57
2022-11-30T12:42:05.416Z,94.00
2022-11-30T12:44:45.857Z,95.97
2022-11-30T12:47:36.795Z,95.18
2022-11-30T12:50:15.507Z,103.40
2022-11-30T12:53:13.975Z,94.70
2022-11-30T12:55:46.061Z,92.28
2022-11-30T12:58:40.791Z,97.57
2022-11-30T13:01:49.885Z,91.35
2022-11-30T13:04:18.954Z,95.82
2022-11-30T13:07:16.172Z,93.95
2022-11-30T13:09:50.265Z,108.28
2022-11-30T13:12:24.726Z,97.60
2022-11-30T13:14:58.508Z,90.55
2022-11-30T13:17:26.789Z,94.32
2022-11-30T13:19:59.172Z,95.20
2022-11-30T13:22:50.631Z,93.13
2022-11-30T13:26:06.828Z,102.07
2022-11-30T13:28:30.832Z,89.63
2022-11-30T13:31:18.962Z,97.50
2022-11-30T13:33:55.248Z,87.60
2022-11-30T13:36:44.506Z,102.93
2022-11-30T13:39:13.801Z,93.40
2022-11-30T13:41:47.501Z,96.30
2022-11-30T13:44:31.945Z,93.93
2022-11-30T13:47:00.505Z,96.38
2022-11-30T13:49:35.647Z,96.35
2022-11-30T13:54:51.387Z,103.10
2022-11-30T13:57:38.232Z,97.88
2022-11-30T14:00:32.545Z,95.30
2022-11-30T14:03:20.799Z,100.35
2022-11-30T14:05:58.609Z,94.50
2022-11-30T14:08:25.894Z,94.55
2022-11-30T14:11:15.649Z,97.95
2022-11-30T14:13:42.516Z,93.65
2022-11-30T14:16:27.287Z,102.35
2022-11-30T14:18:55.549Z,98.15
2022-11-30T14:21:31.116Z,98.30
2022-11-30T14:24:14.017Z,97.60
2022-11-30T14:26:44.224Z,97.03
2022-11-30T14:29:32.821Z,98.85
2022-11-30T14:32:13.620Z,93.53
2022-11-30T14:34:51.399Z,70.47
2022-11-30T14:37:26.079Z,96.63
2022-11-30T14:39:56.589Z,104.63
2022-11-30T14:42:29.277Z,102.32
2022-11-30T14:44:56.428Z,96.93
2022-11-30T14:47:26.396Z,103.18
2022-11-30T14:49:56.309Z,99.30
2022-11-30T14:52:44.115Z,107.43
2022-11-30T14:55:26.120Z,104.10
2022-11-30T14:58:07.074Z,102.53
2022-11-30T15:00:38.729Z,106.88
2022-11-30T15:03:16.145Z,104.18
2022-11-30T15:05:43.473Z,106.38
2022-11-30T15:08:15.060Z,104.80
2022-11-30T15:13:14.310Z,103.38
2022-11-30T15:15:50.753Z,112.13
2022-11-30T15:18:19.111Z,108.90
2022-11-30T15:21:02.141Z,106.72
2022-11-30T15:23:28.939Z,106.20
2022-11-30T15:26:04.308Z,106.63
2022-11-30T15:28:39.543Z,106.47
2022-11-30T15:31:12.628Z,110.30
2022-11-30T15:33:45.335Z,110.20
2022-11-30T15:36:27.914Z,110.53
2022-11-30T15:39:02.389Z,109.75
2022-11-30T15:41:28.849Z,113.38
2022-11-30T15:43:57.259Z,104.72
2022-11-30T15:46:33.234Z,117.53
2022-11-30T15:49:18.796Z,112.25
2022-11-30T15:51:47.514Z,113.22
2022-11-30T15:54:15.240Z,115.40
2022-11-30T15:56:41.672Z,115.00
2022-11-30T15:59:14.055Z,115.75
2022-11-30T16:02:14.426Z,118.95
2022-11-30T16:04:56.235Z,106.90
2022-11-30T16:07:30.008Z,105.63
2022-11-30T16:10:13.705Z,107.63
2022-11-30T16:12:42.835Z,107.40
2022-11-30T16:15:30.861Z,113.20
2022-11-30T16:18:00.480Z,104.85
2022-11-30T16:20:26.899Z,116.93
2022-11-30T16:22:53.332Z,114.97
2022-11-30T16:25:22.462Z,114.93
2022-11-30T16:27:49.340Z,120.03
2022-11-30T16:30:18.988Z,107.97
2022-11-30T16:32:45.533Z,110.68
2022-11-30T16:35:20.963Z,109.72
2022-11-30T16:37:47.785Z,118.78
2022-11-30T16:40:14.689Z,116.22
2022-11-30T16:42:41.382Z,116.78
2022-11-30T16:45:15.856Z,109.13
2022-11-30T16:47:43.537Z,114.72
2022-11-30T16:50:11.676Z,111.00
2022-11-30T16:52:39.012Z,96.85
2022-11-30T16:55:15.875Z,112.35
2022-11-30T16:57:42.428Z,108.93
2022-11-30T17:00:10.880Z,117.40
2022-11-30T17:02:42.858Z,105.60
2022-11-30T17:05:13.864Z,111.07
2022-11-30T17:07:40.673Z,109.53
2022-11-30T17:10:08.259Z,112.60
2022-11-30T17:12:37.462Z,114.28
2022-11-30T17:15:04.611Z,128.15
2022-11-30T17:17:31.053Z,111.00
2022-11-30T17:19:57.535Z,113.85
2022-11-30T17:22:23.962Z,110.75
2022-11-30T17:24:50.553Z,119.82
2022-11-30T17:27:17.069Z,126.10
2022-11-30T17:29:43.526Z,122.10
2022-11-30T17:32:10.005Z,128.00
2022-11-30T17:34:36.519Z,133.63
2022-11-30T17:37:02.923Z,127.30
2022-11-30T17:39:29.699Z,129.70
2022-11-30T17:41:56.430Z,123.97
2022-11-30T17:44:22.837Z,123.97
2022-11-30T17:46:49.363Z,126.90
2022-11-30T17:49:15.915Z,125.13
2022-11-30T17:51:42.492Z,116.75
2022-11-30T17:54:08.955Z,122.85
2022-11-30T17:56:35.849Z,122.85
2022-11-30T17:59:02.400Z,128.38
2022-11-30T18:01:29.298Z,130.20
2022-11-30T18:03:56.566Z,117.47
2022-11-30T18:06:23.031Z,126.25
2022-11-30T18:08:49.575Z,132.98
2022-11-30T18:11:20.359Z,140.02
2022-11-30T18:13:51.588Z,130.45
2022-11-30T18:16:21.143Z,128.25
2022-11-30T18:18:48.817Z,130.48
2022-11-30T18:21:18.034Z,118.88
2022-11-30T18:23:45.011Z,125.22
2022-11-30T18:26:14.237Z,124.70
2022-11-30T18:28:40.817Z,121.15
2022-11-30T18:31:07.554Z,117.07
2022-11-30T18:33:34.930Z,114.78
2022-11-30T18:36:02.888Z,117.00
2022-11-30T18:38:34.169Z,114.78
2022-11-30T18:41:02.259Z,109.88
2022-11-30T18:43:30.720Z,113.80
2022-11-30T18:46:09.280Z,112.28
2022-11-30T18:48:37.067Z,110.93
2022-11-30T18:51:16.817Z,117.40
2022-11-30T18:53:43.593Z,114.82
2022-11-30T18:56:13.173Z,120.68
2022-11-30T18:58:40.840Z,109.55
2022-11-30T19:01:13.262Z,115.30
2022-11-30T19:03:39.937Z,115.45
2022-11-30T19:06:08.018Z,114.93
2022-11-30T19:08:35.212Z,111.22
2022-11-30T19:11:06.147Z,118.10
2022-11-30T19:13:33.254Z,113.65
2022-11-30T19:16:08.604Z,117.88
2022-11-30T19:18:36.036Z,112.22
2022-11-30T19:21:10.902Z,115.18
2022-11-30T19:23:37.896Z,116.45
2022-11-30T19:26:05.892Z,109.20
2022-11-30T19:28:33.549Z,117.70
2022-11-30T19:31:00.816Z,112.32
2022-11-30T19:33:27.685Z,111.15
2022-11-30T19:36:00.025Z,115.40
2022-11-30T19:38:26.525Z,114.15
2022-11-30T19:40:53.113Z,118.45
2022-11-30T19:43:19.623Z,106.80
2022-11-30T19:45:46.121Z,107.70
2022-11-30T19:48:12.652Z,113.20
2022-11-30T19:50:39.147Z,103.72
2022-11-30T19:53:05.727Z,101.78
2022-11-30T19:55:32.854Z,113.63
2022-11-30T19:57:59.497Z,114.53
2022-11-30T20:00:25.971Z,109.57
2022-11-30T20:02:52.543Z,111.57
2022-11-30T20:05:19.085Z,103.97
2022-11-30T20:07:45.676Z,113.57
2022-11-30T20:10:13.400Z,109.85
2022-11-30T20:12:41.301Z,107.50
2022-11-30T20:15:08.327Z,106.55
2022-11-30T20:17:34.979Z,108.35
2022-11-30T20:20:01.577Z,109.68
2022-11-30T20:22:28.037Z,115.78
2022-11-30T20:24:54.498Z,111.82
2022-11-30T20:27:22.509Z,117.97
2022-11-30T20:29:50.240Z,113.22
2022-11-30T20:32:17.092Z,115.65
2022-11-30T20:34:44.730Z,116.55
2022-11-30T20:37:12.258Z,112.03
2022-11-30T20:39:44.078Z,104.72
2022-11-30T20:42:12.238Z,125.30
2022-11-30T20:44:38.787Z,111.60
2022-11-30T20:47:05.358Z,107.00
2022-11-30T20:49:31.983Z,117.80
2022-11-30T20:51:58.577Z,119.50
2022-11-30T20:54:25.131Z,113.32
2022-11-30T20:56:51.724Z,121.30
2022-11-30T20:59:26.327Z,116.05
2022-11-30T21:01:55.290Z,116.88
2022-11-30T21:04:23.555Z,118.25
2022-11-30T21:06:50.039Z,113.22
2022-11-30T21:09:18.420Z,122.78
2022-11-30T21:11:45.509Z,114.40
2022-11-30T21:14:12.534Z,106.00
2022-11-30T21:16:39.628Z,115.25
2022-11-30T21:19:06.188Z,109.30
2022-11-30T21:21:35.057Z,113.40
2022-11-30T21:24:07.680Z,114.15
2022-11-30T21:26:40.701Z,114.80
2022-11-30T21:29:11.804Z,115.07
2022-11-30T21:31:38.574Z,113.82
2022-11-30T21:34:05.124Z,122.97
2022-11-30T21:36:32.188Z,121.95
2022-11-30T21:39:05.880Z,116.43
2022-11-30T21:41:35.122Z,104.50
2022-11-30T21:44:02.232Z,118.53
2022-11-30T21:46:28.854Z,114.05
2022-11-30T21:48:55.409Z,110.57
2022-11-30T21:51:24.548Z,103.95
2022-11-30T21:53:53.637Z,116.45
2022-11-30T21:56:26.774Z,111.30
2022-11-30T21:58:53.533Z,104.45
2022-11-30T22:01:25.788Z,110.57
2022-11-30T22:03:54.372Z,111.80
2022-11-30T22:06:21.620Z,101.07
2022-11-30T22:08:48.490Z,101.03
2022-11-30T22:11:17.593Z,106.95
2022-11-30T22:13:45.063Z,107.32
2022-11-30T22:16:14.292Z,105.85
2022-11-30T22:18:42.540Z,106.25
2022-11-30T22:21:13.728Z,109.38
2022-11-30T22:23:45.965Z,113.63
2022-11-30T22:26:24.151Z,113.95
2022-11-30T22:28:54.039Z,119.55
2022-11-30T22:31:22.756Z,116.45
2022-11-30T22:33:49.693Z,114.47
2022-11-30T22:36:22.223Z,112.40
2022-11-30T22:38:54.592Z,117.40
2022-11-30T22:41:21.657Z,113.72
2022-11-30T22:43:48.578Z,123.00
2022-11-30T22:46:17.939Z,119.40
2022-11-30T22:48:45.327Z,119.45
2022-11-30T22:51:17.328Z,124.20
2022-11-30T22:53:43.793Z,120.93
2022-11-30T22:56:13.666Z,120.60
2022-11-30T22:58:41.751Z,112.65
2022-11-30T23:01:13.414Z,118.53
2022-11-30T23:03:41.287Z,116.38
2022-11-30T23:06:08.999Z,115.60
2022-11-30T23:08:35.973Z,122.57
2022-11-30T23:11:05.716Z,116.90
2022-11-30T23:13:32.338Z,112.65
2022-11-30T23:15:59.908Z,110.78
2022-11-30T23:18:31.265Z,115.03
2022-11-30T23:21:05.262Z,111.35
2022-11-30T23:23:31.798Z,104.45
2022-11-30T23:26:09.754Z,112.28
2022-11-30T23:28:36.329Z,113.03
2022-11-30T23:31:03.929Z,119.95
2022-11-30T23:33:30.394Z,117.72
2022-11-30T23:35:56.957Z,117.25
2022-11-30T23:38:23.469Z,109.45
2022-11-30T23:40:49.860Z,118.72
2022-11-30T23:43:16.325Z,109.80
2022-11-30T23:45:42.773Z,114.45
2022-11-30T23:48:10.229Z,116.05
2022-11-30T23:50:37.135Z,106.95
2022-11-30T23:53:03.529Z,107.63
2022-11-30T23:55:29.986Z,102.00
2022-11-30T23:57:56.373Z,111.53
